createdAt,value
2018-11-25T00:02:14.149Z,116.17
2018-11-25T00:04:42.842Z,118.47
2018-11-25T00:07:11.541Z,105.90
2018-11-25T00:09:40.237Z,104.03
2018-11-25T00:12:08.930Z,111.20
2018-11-25T00:14:37.913Z,106.63
2018-11-25T00:17:06.649Z,113.43
2018-11-25T00:19:35.350Z,111.40
2018-11-25T00:22:04.043Z,105.70
2018-11-25T00:24:32.749Z,102.67
2018-11-25T00:27:01.437Z,106.50
2018-11-25T00:29:30.147Z,114.17
2018-11-25T00:31:58.821Z,111.17
2018-11-25T00:34:27.530Z,116.23
2018-11-25T00:36:56.246Z,116.13
2018-11-25T00:39:25.398Z,121.23
2018-11-25T00:41:54.105Z,116.43
2018-11-25T00:44:22.798Z,122.33
2018-11-25T00:46:51.513Z,118.72
2018-11-25T00:49:20.228Z,111.73
2018-11-25T00:51:48.918Z,130.30
2018-11-25T00:54:17.616Z,120.70
2018-11-25T00:56:46.298Z,120.10
2018-11-25T00:59:14.997Z,113.90
2018-11-25T01:01:43.681Z,116.47
2018-11-25T01:04:12.432Z,114.77
2018-11-25T01:06:41.109Z,114.57
2018-11-25T01:09:09.808Z,123.20
2018-11-25T01:11:38.502Z,124.10
2018-11-25T01:14:08.141Z,124.67
2018-11-25T01:16:36.842Z,116.40
2018-11-25T01:19:05.542Z,120.70
2018-11-25T01:21:37.258Z,117.53
2018-11-25T01:24:06.149Z,128.27
2018-11-25T01:26:34.861Z,118.10
2018-11-25T01:29:03.577Z,119.77
2018-11-25T01:31:32.261Z,129.93
2018-11-25T01:34:00.983Z,123.33
2018-11-25T01:36:29.720Z,135.37
2018-11-25T01:38:58.425Z,128.77
2018-11-25T01:41:27.145Z,112.87
2018-11-25T01:43:55.850Z,113.00
2018-11-25T01:46:24.556Z,122.60
2018-11-25T01:48:53.285Z,126.67
2018-11-25T01:51:21.979Z,121.67
2018-11-25T01:53:50.670Z,121.10
2018-11-25T01:56:19.362Z,127.50
2018-11-25T01:58:48.069Z,112.20
2018-11-25T02:01:16.754Z,132.63
2018-11-25T02:03:45.445Z,123.80
2018-11-25T02:06:14.129Z,129.97
2018-11-25T02:08:42.817Z,133.67
2018-11-25T02:11:11.537Z,129.20
2018-11-25T02:13:40.240Z,134.07
2018-11-25T02:16:08.973Z,133.67
2018-11-25T02:18:38.580Z,128.77
2018-11-25T02:21:07.279Z,119.03
2018-11-25T02:23:35.966Z,124.43
2018-11-25T02:26:04.801Z,125.27
2018-11-25T02:28:33.484Z,126.57
2018-11-25T02:31:02.200Z,128.37
2018-11-25T02:33:30.890Z,116.00
2018-11-25T02:35:59.622Z,128.50
2018-11-25T02:38:28.332Z,123.80
2018-11-25T02:40:57.033Z,119.87
2018-11-25T02:43:25.725Z,116.93
2018-11-25T02:45:54.452Z,134.40
2018-11-25T02:48:23.149Z,141.00
2018-11-25T02:50:51.878Z,128.40
2018-11-25T02:53:20.581Z,137.73
2018-11-25T02:55:49.293Z,128.27
2018-11-25T02:58:17.973Z,130.03
2018-11-25T03:00:46.666Z,136.43
2018-11-25T03:03:15.376Z,121.90
2018-11-25T03:05:44.081Z,127.50
2018-11-25T03:08:12.786Z,123.83
2018-11-25T03:10:41.481Z,137.47
2018-11-25T03:13:10.161Z,124.67
2018-11-25T03:15:38.950Z,129.97
2018-11-25T03:18:07.647Z,128.60
2018-11-25T03:20:36.346Z,123.20
2018-11-25T03:23:05.213Z,120.50
2018-11-25T03:25:33.916Z,122.60
2018-11-25T03:28:02.616Z,130.73
2018-11-25T03:30:31.321Z,131.83
2018-11-25T03:33:00.025Z,124.37
2018-11-25T03:35:28.716Z,134.17
2018-11-25T03:37:57.425Z,133.60
2018-11-25T03:40:26.127Z,134.47
2018-11-25T03:42:54.848Z,129.37
2018-11-25T03:45:24.281Z,138.83
2018-11-25T03:47:52.977Z,142.13
2018-11-25T03:50:21.687Z,134.80
2018-11-25T03:52:50.374Z,140.17
2018-11-25T03:55:19.096Z,133.20
2018-11-25T03:57:47.782Z,131.10
2018-11-25T04:00:18.604Z,133.07
2018-11-25T04:02:47.512Z,138.23
2018-11-25T04:05:16.917Z,142.63
2018-11-25T04:07:45.612Z,134.43
2018-11-25T04:10:16.114Z,158.03
2018-11-25T04:12:44.914Z,147.73
2018-11-25T04:15:14.505Z,172.97
2018-11-25T04:17:43.214Z,162.17
2018-11-25T04:20:15.546Z,170.77
2018-11-25T04:22:44.285Z,152.93
2018-11-25T04:25:13.491Z,146.00
2018-11-25T04:30:18.142Z,154.60
2018-11-25T04:32:48.852Z,148.90
2018-11-25T04:35:17.542Z,155.13
2018-11-25T04:37:46.238Z,161.00
2018-11-25T04:40:18.605Z,148.10
2018-11-25T04:42:47.345Z,170.50
2018-11-25T04:45:16.748Z,156.77
2018-11-25T04:47:52.686Z,160.93
2018-11-25T04:50:21.593Z,164.40
2018-11-25T04:52:50.289Z,165.27
2018-11-25T04:55:18.994Z,163.33
2018-11-25T04:57:50.236Z,156.10
2018-11-25T05:00:19.148Z,154.67
2018-11-25T05:02:48.459Z,155.70
2018-11-25T05:05:17.356Z,160.27
2018-11-25T05:07:46.050Z,161.20
2018-11-25T05:10:17.606Z,144.83
2018-11-25T05:12:46.345Z,159.03
2018-11-25T05:15:17.003Z,155.60
2018-11-25T05:17:45.702Z,147.80
2018-11-25T05:20:14.995Z,162.60
2018-11-25T05:22:43.704Z,149.83
2018-11-25T05:25:13.400Z,151.07
2018-11-25T05:27:42.102Z,158.43
2018-11-25T05:30:13.946Z,161.20
2018-11-25T05:32:42.809Z,170.53
2018-11-25T05:35:13.377Z,160.37
2018-11-25T05:37:42.069Z,151.37
2018-11-25T05:40:11.668Z,156.70
2018-11-25T05:42:40.406Z,159.03
2018-11-25T05:45:11.697Z,162.30
2018-11-25T05:47:40.387Z,168.90
2018-11-25T05:50:13.675Z,154.57
2018-11-25T05:52:42.369Z,154.33
2018-11-25T05:55:11.695Z,160.33
2018-11-25T05:57:40.465Z,161.60
2018-11-25T06:00:17.155Z,147.27
2018-11-25T06:02:45.845Z,183.63
2018-11-25T06:05:14.546Z,168.60
2018-11-25T06:07:43.245Z,167.93
2018-11-25T06:10:12.766Z,176.40
2018-11-25T06:12:41.515Z,209.87
2018-11-25T06:15:12.060Z,205.17
2018-11-25T06:17:40.785Z,196.57
2018-11-25T06:20:15.920Z,189.13
2018-11-25T06:22:44.957Z,173.60
2018-11-25T06:25:18.647Z,183.90
2018-11-25T06:27:47.341Z,185.33
2018-11-25T06:30:19.626Z,166.13
2018-11-25T06:32:48.473Z,154.60
2018-11-25T06:35:18.021Z,151.57
2018-11-25T06:37:46.724Z,154.80
2018-11-25T06:40:19.146Z,147.23
2018-11-25T06:42:47.963Z,162.37
2018-11-25T06:45:24.629Z,146.50
2018-11-25T06:47:54.168Z,180.40
2018-11-25T06:50:22.900Z,170.30
2018-11-25T06:52:51.617Z,190.03
2018-11-25T06:55:20.339Z,185.60
2018-11-25T06:57:49.044Z,173.43
2018-11-25T07:00:19.619Z,162.53
2018-11-25T07:02:48.322Z,160.32
2018-11-25T07:05:17.029Z,160.53
2018-11-25T07:07:45.750Z,169.73
2018-11-25T07:10:19.100Z,169.47
2018-11-25T07:12:48.913Z,192.30
2018-11-25T07:15:18.200Z,190.17
2018-11-25T07:17:47.066Z,178.40
2018-11-25T07:20:16.803Z,199.63
2018-11-25T07:22:45.575Z,198.50
2018-11-25T07:25:17.153Z,187.47
2018-11-25T07:27:45.849Z,202.57
2018-11-25T07:30:23.537Z,191.90
2018-11-25T07:32:52.251Z,194.17
2018-11-25T07:35:21.521Z,198.83
2018-11-25T07:37:50.228Z,197.23
2018-11-25T07:40:19.810Z,187.97
2018-11-25T07:42:48.843Z,223.63
2018-11-25T07:45:30.152Z,185.63
2018-11-25T07:47:53.729Z,196.17
2018-11-25T07:50:22.424Z,182.80
2018-11-25T07:52:51.669Z,183.70
2018-11-25T07:55:21.570Z,187.80
2018-11-25T07:57:51.217Z,188.93
2018-11-25T08:00:21.711Z,187.17
2018-11-25T08:02:50.424Z,170.57
2018-11-25T08:05:21.130Z,176.00
2018-11-25T08:07:49.822Z,187.17
2018-11-25T08:10:18.517Z,180.87
2018-11-25T08:12:47.805Z,171.20
2018-11-25T08:15:17.334Z,178.60
2018-11-25T08:17:46.049Z,180.67
2018-11-25T08:20:15.722Z,196.90
2018-11-25T08:22:44.425Z,171.33
2018-11-25T08:25:14.370Z,180.67
2018-11-25T08:27:43.025Z,179.23
2018-11-25T08:30:20.639Z,199.95
2018-11-25T08:32:49.486Z,187.03
2018-11-25T08:35:18.485Z,203.83
2018-11-25T08:37:47.175Z,194.93
2018-11-25T08:40:21.933Z,182.87
2018-11-25T08:42:50.656Z,178.50
2018-11-25T08:45:19.350Z,183.43
2018-11-25T08:47:48.051Z,191.90
2018-11-25T08:50:17.586Z,196.63
2018-11-25T08:52:50.241Z,194.53
2018-11-25T08:55:19.962Z,177.77
2018-11-25T08:57:48.669Z,181.67
2018-11-25T09:00:21.234Z,185.07
2018-11-25T09:02:50.829Z,194.60
2018-11-25T09:05:19.537Z,227.43
2018-11-25T09:07:48.301Z,223.37
2018-11-25T09:10:18.027Z,171.07
2018-11-25T09:12:55.288Z,186.00
2018-11-25T09:15:18.777Z,174.53
2018-11-25T09:17:47.637Z,173.53
2018-11-25T09:20:17.512Z,186.47
2018-11-25T09:22:46.373Z,161.17
2018-11-25T09:25:19.265Z,157.13
2018-11-25T09:27:48.070Z,150.80
2018-11-25T09:30:17.995Z,163.70
2018-11-25T09:32:46.676Z,153.87
2018-11-25T09:35:15.565Z,155.43
2018-11-25T09:37:44.242Z,152.30
2018-11-25T09:40:16.142Z,153.53
2018-11-25T09:42:44.878Z,144.77
2018-11-25T09:45:14.501Z,150.87
2018-11-25T09:47:43.480Z,129.33
2018-11-25T09:50:13.228Z,141.43
2018-11-25T09:52:41.905Z,117.20
2018-11-25T09:55:15.619Z,147.32
2018-11-25T10:01:04.150Z,128.47
2018-11-25T10:03:36.291Z,132.43
2018-11-25T10:09:11.506Z,116.73
2018-11-25T10:24:06.314Z,118.13
2018-11-25T10:26:35.037Z,108.03
2018-11-25T10:29:03.748Z,111.37
2018-11-25T10:31:32.441Z,106.30
2018-11-25T10:34:01.139Z,107.33
2018-11-25T10:36:29.853Z,103.67
2018-11-25T10:38:58.541Z,98.00
2018-11-25T10:41:27.242Z,106.10
2018-11-25T10:43:55.921Z,111.67
2018-11-25T10:46:24.609Z,113.57
2018-11-25T10:48:53.302Z,104.93
2018-11-25T10:51:22.018Z,104.47
2018-11-25T10:53:50.805Z,118.97
2018-11-25T10:56:19.876Z,115.50
2018-11-25T10:58:48.625Z,120.30
2018-11-25T11:01:22.782Z,122.00
2018-11-25T11:03:56.113Z,122.63
2018-11-25T11:06:30.666Z,136.63
2018-11-25T11:08:59.352Z,126.63
2018-11-25T11:11:28.054Z,125.43
2018-11-25T11:13:56.750Z,129.73
2018-11-25T11:16:25.451Z,124.97
2018-11-25T11:18:54.137Z,128.00
2018-11-25T11:21:22.842Z,127.07
2018-11-25T11:23:51.522Z,131.57
2018-11-25T11:26:25.769Z,118.87
2018-11-25T11:28:54.501Z,127.73
2018-11-25T11:31:23.233Z,133.17
2018-11-25T11:33:51.922Z,121.47
2018-11-25T11:36:20.657Z,143.40
2018-11-25T11:38:50.298Z,134.77
2018-11-25T11:41:18.997Z,139.17
2018-11-25T11:43:47.688Z,137.27
2018-11-25T11:46:16.393Z,134.47
2018-11-25T11:48:45.090Z,136.77
2018-11-25T11:51:13.809Z,138.53
2018-11-25T11:53:42.549Z,131.67
2018-11-25T11:56:11.254Z,130.67
2018-11-25T11:58:46.498Z,132.13
2018-11-25T12:01:15.203Z,136.70
2018-11-25T12:03:43.894Z,136.40
2018-11-25T12:06:12.595Z,132.73
2018-11-25T12:08:41.306Z,131.63
2018-11-25T12:11:10.046Z,127.03
2018-11-25T12:13:38.734Z,130.63
2018-11-25T12:16:07.438Z,125.10
2018-11-25T12:18:36.117Z,131.13
2018-11-25T12:21:04.866Z,128.43
2018-11-25T12:23:33.591Z,120.97
2018-11-25T12:26:02.382Z,120.30
2018-11-25T12:28:31.070Z,124.67
2018-11-25T12:30:59.758Z,117.90
2018-11-25T12:33:28.458Z,116.53
2018-11-25T12:35:57.955Z,114.00
2018-11-25T12:38:26.646Z,116.97
2018-11-25T12:40:55.361Z,112.83
2018-11-25T12:43:24.069Z,108.53
2018-11-25T12:45:52.785Z,106.13
2018-11-25T12:48:22.389Z,97.33
2018-11-25T12:50:51.073Z,103.67
2018-11-25T12:53:19.813Z,100.93
2018-11-25T12:55:48.485Z,100.10
2018-11-25T12:58:17.177Z,98.30
2018-11-25T13:00:47.306Z,92.63
2018-11-25T13:03:15.994Z,88.30
2018-11-25T13:05:46.359Z,91.07
2018-11-25T13:08:14.130Z,85.80
2018-11-25T13:10:42.801Z,87.73
2018-11-25T13:13:12.126Z,87.83
2018-11-25T13:15:40.812Z,95.97
2018-11-25T13:18:10.133Z,85.67
2018-11-25T13:20:38.847Z,79.97
2018-11-25T13:23:07.697Z,90.50
2018-11-25T13:25:36.377Z,84.83
2018-11-25T13:28:05.243Z,79.80
2018-11-25T13:30:33.911Z,85.43
2018-11-25T13:33:09.278Z,78.70
2018-11-25T13:35:39.840Z,80.40
2018-11-25T13:38:08.510Z,81.13
2018-11-25T13:40:37.195Z,80.63
2018-11-25T13:43:06.265Z,76.53
2018-11-25T13:45:34.926Z,76.67
2018-11-25T13:48:03.598Z,79.33
2018-11-25T13:50:32.465Z,83.03
2018-11-25T13:53:01.141Z,78.93
2018-11-25T13:55:29.813Z,79.50
2018-11-25T13:57:58.520Z,77.50
2018-11-25T14:00:30.147Z,75.40
2018-11-25T14:02:58.838Z,79.60
2018-11-25T14:05:27.502Z,73.83
2018-11-25T14:07:56.178Z,73.97
2018-11-25T14:10:28.737Z,74.67
2018-11-25T14:12:57.422Z,72.83
2018-11-25T14:15:26.461Z,74.43
2018-11-25T14:17:55.153Z,66.00
2018-11-25T14:20:23.806Z,298.07
2018-11-25T14:22:52.950Z,126.83
2018-11-25T14:25:22.561Z,82.43
2018-11-25T14:27:54.202Z,81.50
2018-11-25T14:30:24.821Z,76.80
2018-11-25T14:32:53.505Z,72.63
2018-11-25T14:35:23.124Z,73.30
2018-11-25T14:37:51.793Z,77.63
2018-11-25T14:40:20.458Z,78.40
2018-11-25T14:42:49.127Z,85.40
2018-11-25T14:45:18.379Z,80.63
2018-11-25T14:47:47.054Z,80.00
2018-11-25T14:50:17.009Z,86.93
2018-11-25T14:52:47.042Z,86.63
2018-11-25T14:55:16.139Z,80.60
2018-11-25T14:57:44.806Z,82.67
2018-11-25T15:00:17.476Z,82.60
2018-11-25T15:03:02.554Z,74.27
2018-11-25T15:05:34.917Z,79.60
2018-11-25T15:08:03.589Z,77.53
2018-11-25T15:10:32.369Z,70.83
2018-11-25T15:13:01.039Z,74.97
2018-11-25T15:15:29.726Z,68.17
2018-11-25T15:17:58.398Z,73.10
2018-11-25T15:20:27.113Z,72.30
2018-11-25T15:22:57.675Z,82.73
2018-11-25T15:25:29.133Z,80.83
2018-11-25T15:27:58.298Z,83.83
2018-11-25T15:30:26.558Z,85.03
2018-11-25T15:32:55.230Z,87.87
2018-11-25T15:35:23.924Z,85.37
2018-11-25T15:37:54.129Z,78.17
2018-11-25T15:40:25.568Z,84.87
2018-11-25T15:42:54.254Z,79.17
2018-11-25T15:45:23.339Z,81.80
2018-11-25T15:47:53.971Z,84.17
2018-11-25T15:50:24.923Z,84.63
2018-11-25T15:52:53.811Z,79.73
2018-11-25T15:55:23.648Z,73.13
2018-11-25T15:57:53.224Z,72.17
2018-11-25T16:00:23.061Z,75.20
2018-11-25T16:02:51.824Z,79.67
2018-11-25T16:05:23.009Z,69.83
2018-11-25T16:07:51.683Z,76.10
2018-11-25T16:10:20.390Z,66.80
2018-11-25T16:12:49.991Z,73.67
2018-11-25T16:15:19.780Z,69.67
2018-11-25T16:17:48.481Z,68.33
2018-11-25T16:20:19.226Z,68.80
2018-11-25T16:22:49.418Z,71.33
2018-11-25T16:25:23.173Z,71.57
2018-11-25T16:27:55.906Z,67.40
2018-11-25T16:30:24.620Z,67.70
2018-11-25T16:32:53.274Z,68.03
2018-11-25T16:35:21.951Z,65.53
2018-11-25T16:37:50.674Z,64.00
2018-11-25T16:40:19.350Z,62.63
2018-11-25T16:42:48.048Z,63.87
2018-11-25T16:45:16.906Z,62.23
2018-11-25T16:47:45.570Z,60.30
2018-11-25T16:50:24.493Z,63.00
2018-11-25T16:52:45.213Z,58.90
2018-11-25T16:55:14.537Z,63.80
2018-11-25T16:57:44.099Z,64.13
2018-11-25T17:00:17.850Z,62.40
2018-11-25T17:02:46.515Z,59.30
2018-11-25T17:05:20.703Z,60.33
2018-11-25T17:07:54.349Z,54.77
2018-11-25T17:10:23.086Z,58.73
2018-11-25T17:12:51.757Z,57.57
2018-11-25T17:15:21.852Z,60.70
2018-11-25T17:17:50.533Z,58.80
2018-11-25T17:20:19.219Z,58.97
2018-11-25T17:22:47.899Z,54.47
2018-11-25T17:25:16.643Z,58.00
2018-11-25T17:27:45.458Z,59.27
2018-11-25T17:30:16.318Z,55.10
2018-11-25T17:32:45.658Z,60.00
2018-11-25T17:35:18.714Z,58.40
2018-11-25T17:37:47.557Z,60.40
2018-11-25T17:40:16.362Z,58.27
2018-11-25T17:42:45.074Z,59.60
2018-11-25T17:45:13.806Z,59.77
2018-11-25T17:47:42.925Z,55.17
2018-11-25T17:50:27.818Z,53.70
2018-11-25T17:52:56.507Z,56.90
2018-11-25T17:55:26.459Z,53.57
2018-11-25T17:57:55.220Z,63.07
2018-11-25T18:00:35.587Z,61.07
2018-11-25T18:03:04.826Z,64.63
2018-11-25T18:05:38.637Z,62.87
2018-11-25T18:08:02.273Z,62.70
2018-11-25T18:10:31.073Z,59.03
2018-11-25T18:12:59.779Z,63.43
2018-11-25T18:15:28.514Z,67.57
2018-11-25T18:18:03.692Z,68.33
2018-11-25T18:20:43.911Z,59.50
2018-11-25T18:23:12.652Z,64.73
2018-11-25T18:25:41.325Z,64.93
2018-11-25T18:28:10.019Z,63.10
2018-11-25T18:30:38.722Z,61.40
2018-11-25T18:33:07.398Z,65.37
2018-11-25T18:35:37.228Z,60.93
2018-11-25T18:38:06.814Z,62.13
2018-11-25T18:40:35.632Z,62.33
2018-11-25T18:43:04.481Z,61.57
2018-11-25T18:45:33.166Z,62.40
2018-11-25T18:48:01.844Z,64.47
2018-11-25T18:50:30.565Z,65.23
2018-11-25T18:53:00.229Z,62.13
2018-11-25T18:55:28.082Z,61.57
2018-11-25T18:57:56.791Z,58.90
2018-11-25T19:00:43.222Z,65.17
2018-11-25T19:03:11.897Z,61.27
2018-11-25T19:05:40.562Z,66.70
2018-11-25T19:08:09.449Z,76.63
2018-11-25T19:10:38.190Z,67.25
2018-11-25T19:13:06.917Z,67.50
2018-11-25T19:15:35.581Z,68.80
2018-11-25T19:18:04.322Z,61.83
2018-11-25T19:20:33.070Z,66.23
2018-11-25T19:23:01.803Z,64.40
2018-11-25T19:25:30.526Z,63.00
2018-11-25T19:27:59.235Z,61.10
2018-11-25T19:30:28.486Z,55.90
2018-11-25T19:32:57.161Z,59.13
2018-11-25T19:35:25.843Z,55.63
2018-11-25T19:37:54.570Z,56.57
2018-11-25T19:40:25.334Z,54.40
2018-11-25T19:42:54.172Z,55.43
2018-11-25T19:45:25.106Z,58.73
2018-11-25T19:47:54.626Z,53.57
2018-11-25T19:50:29.778Z,49.00
2018-11-25T19:52:58.569Z,48.27
2018-11-25T19:55:27.253Z,51.43
2018-11-25T19:57:55.977Z,46.90
2018-11-25T20:00:25.590Z,49.93
2018-11-25T20:02:54.285Z,47.77
2018-11-25T20:05:22.985Z,45.00
2018-11-25T20:07:51.694Z,48.73
2018-11-25T20:10:21.515Z,45.57
2018-11-25T20:12:51.325Z,46.90
2018-11-25T20:15:20.621Z,52.07
2018-11-25T20:17:54.337Z,54.33
2018-11-25T20:20:19.196Z,56.07
2018-11-25T20:22:48.187Z,57.17
2018-11-25T20:25:17.395Z,58.63
2018-11-25T20:27:48.014Z,61.33
2018-11-25T20:30:25.607Z,62.70
2018-11-25T20:32:59.697Z,64.90
2018-11-25T20:35:28.800Z,66.83
2018-11-25T20:38:03.054Z,61.80
2018-11-25T20:40:31.825Z,63.73
2018-11-25T20:43:07.225Z,65.10
2018-11-25T20:45:41.344Z,65.37
2018-11-25T20:48:10.048Z,61.10
2018-11-25T20:50:38.726Z,64.37
2018-11-25T20:53:12.894Z,61.20
2018-11-25T20:55:48.210Z,59.97
2018-11-25T20:58:16.921Z,62.17
2018-11-25T21:00:45.666Z,65.63
2018-11-25T21:03:14.349Z,62.60
2018-11-25T21:05:43.042Z,65.47
2018-11-25T21:08:11.747Z,68.93
2018-11-25T21:10:40.429Z,68.33
2018-11-25T21:13:09.149Z,71.70
2018-11-25T21:15:37.991Z,71.23
2018-11-25T21:18:06.954Z,71.73
2018-11-25T21:20:35.648Z,65.10
2018-11-25T21:23:04.342Z,62.40
2018-11-25T21:25:33.179Z,50.73
2018-11-25T21:28:01.863Z,50.87
2018-11-25T21:30:30.698Z,57.27
2018-11-25T21:32:59.471Z,65.00
2018-11-25T21:35:29.076Z,58.93
2018-11-25T21:37:57.755Z,58.90
2018-11-25T21:40:26.496Z,57.13
2018-11-25T21:42:55.135Z,54.60
2018-11-25T21:45:23.846Z,56.90
2018-11-25T21:47:52.581Z,57.80
2018-11-25T21:50:25.675Z,61.60
2018-11-25T21:52:54.322Z,58.13
2018-11-25T21:55:23.449Z,60.13
2018-11-25T21:57:52.113Z,60.73
2018-11-25T22:00:22.213Z,63.13
2018-11-25T22:02:50.874Z,55.67
2018-11-25T22:05:20.089Z,54.17
2018-11-25T22:07:48.251Z,54.90
2018-11-25T22:10:19.081Z,51.93
2018-11-25T22:12:48.096Z,50.50
2018-11-25T22:15:21.179Z,48.37
2018-11-25T22:17:49.889Z,50.23
2018-11-25T22:20:18.847Z,45.73
2018-11-25T22:22:47.569Z,45.30
2018-11-25T22:25:18.368Z,44.13
2018-11-25T22:27:47.281Z,41.20
2018-11-25T22:30:20.078Z,37.93
2018-11-25T22:32:48.789Z,38.03
2018-11-25T22:35:18.877Z,35.77
2018-11-25T22:37:47.638Z,32.90
2018-11-25T22:40:17.253Z,35.93
2018-11-25T22:42:46.905Z,35.17
2018-11-25T22:45:16.718Z,36.93
2018-11-25T22:47:45.425Z,35.93
2018-11-25T22:50:15.957Z,35.23
2018-11-25T22:52:44.858Z,35.87
2018-11-25T22:55:15.577Z,33.13
2018-11-25T22:57:44.328Z,38.70
2018-11-25T23:00:31.362Z,34.03
2018-11-25T23:03:00.046Z,33.37
2018-11-25T23:05:41.101Z,35.30
2018-11-25T23:08:09.795Z,33.50
2018-11-25T23:10:38.493Z,32.40
2018-11-25T23:13:07.181Z,27.63
2018-11-25T23:15:35.897Z,34.97
2018-11-25T23:18:04.713Z,35.73
2018-11-25T23:20:33.622Z,32.33
2018-11-25T23:23:02.293Z,33.90
2018-11-25T23:25:31.002Z,33.20
2018-11-25T23:27:59.798Z,32.57
2018-11-25T23:30:28.490Z,32.83
2018-11-25T23:32:57.158Z,32.87
2018-11-25T23:35:27.313Z,28.57
2018-11-25T23:37:56.005Z,29.20
2018-11-25T23:40:24.677Z,27.10
2018-11-25T23:42:53.385Z,25.80
2018-11-25T23:45:22.087Z,27.83
2018-11-25T23:47:50.749Z,25.07
2018-11-25T23:50:19.417Z,26.03
2018-11-25T23:52:48.753Z,29.50
2018-11-25T23:55:17.554Z,26.73
2018-11-25T23:57:46.245Z,25.57
